createdAt,value
2019-06-10T00:00:54.970Z,1011.31
2019-06-10T00:01:53.730Z,1011.34
2019-06-10T00:02:53.706Z,1011.30
2019-06-10T00:03:53.690Z,1011.34
2019-06-10T00:04:53.684Z,1011.29
2019-06-10T00:05:53.671Z,1011.29
2019-06-10T00:06:53.685Z,1011.29
2019-06-10T00:07:53.698Z,1011.24
2019-06-10T00:08:53.679Z,1011.22
2019-06-10T00:09:53.616Z,1011.23
2019-06-10T00:10:53.608Z,1011.20
2019-06-10T00:11:53.627Z,1011.15
2019-06-10T00:12:55.348Z,1011.24
2019-06-10T00:13:53.592Z,1011.17
2019-06-10T00:14:53.576Z,1011.22
2019-06-10T00:15:53.553Z,1011.18
2019-06-10T00:16:53.553Z,1011.24
2019-06-10T00:18:13.220Z,1011.18
2019-06-10T00:18:54.519Z,1011.20
2019-06-10T00:19:53.516Z,1011.21
2019-06-10T00:20:53.510Z,1011.18
2019-06-10T00:21:53.530Z,1011.23
2019-06-10T00:22:53.482Z,1011.28
2019-06-10T00:23:53.473Z,1011.29
2019-06-10T00:24:53.452Z,1011.31
2019-06-10T00:25:53.455Z,1011.32
2019-06-10T00:26:53.442Z,1011.29
2019-06-10T00:27:53.428Z,1011.31
2019-06-10T00:28:53.405Z,1011.30
2019-06-10T00:29:53.406Z,1011.36
2019-06-10T00:30:53.396Z,1011.34
2019-06-10T00:31:53.383Z,1011.36
2019-06-10T00:32:53.377Z,1011.31
2019-06-10T00:33:53.367Z,1011.36
2019-06-10T00:34:53.345Z,1011.35
2019-06-10T00:35:53.324Z,1011.32
2019-06-10T00:36:53.315Z,1011.30
2019-06-10T00:37:53.342Z,1011.25
2019-06-10T00:38:53.293Z,1011.24
2019-06-10T00:39:53.296Z,1011.22
2019-06-10T00:40:53.287Z,1011.23
2019-06-10T00:41:53.261Z,1011.19
2019-06-10T00:42:53.254Z,1011.21
2019-06-10T00:43:53.271Z,1011.19
2019-06-10T00:44:53.246Z,1011.19
2019-06-10T00:45:53.248Z,1011.15
2019-06-10T00:46:53.223Z,1011.16
2019-06-10T00:48:07.637Z,1011.10
2019-06-10T00:48:54.204Z,1011.12
2019-06-10T00:49:53.180Z,1011.15
2019-06-10T00:50:53.159Z,1011.06
2019-06-10T00:51:53.158Z,1011.07
2019-06-10T00:52:53.154Z,1011.01
2019-06-10T00:53:53.142Z,1011.04
2019-06-10T00:54:53.136Z,1011.01
2019-06-10T00:55:53.116Z,1011.04
2019-06-10T00:56:53.111Z,1010.99
2019-06-10T00:57:53.096Z,1010.96
2019-06-10T00:58:53.104Z,1010.99
2019-06-10T00:59:53.069Z,1010.95
2019-06-10T01:00:53.051Z,1010.89
2019-06-10T01:01:53.042Z,1010.92
2019-06-10T01:02:53.030Z,1010.81
2019-06-10T01:03:53.037Z,1010.76
2019-06-10T01:04:53.013Z,1010.75
2019-06-10T01:05:53.005Z,1010.71
2019-06-10T01:06:52.996Z,1010.71
2019-06-10T01:07:52.991Z,1010.71
2019-06-10T01:08:52.963Z,1010.71
2019-06-10T01:09:52.976Z,1010.72
2019-06-10T01:10:52.947Z,1010.74
2019-06-10T01:11:52.944Z,1010.75
2019-06-10T01:12:52.927Z,1010.71
2019-06-10T01:13:52.907Z,1010.67
2019-06-10T01:14:52.927Z,1010.62
2019-06-10T01:15:52.904Z,1010.64
2019-06-10T01:16:52.879Z,1010.64
2019-06-10T01:17:52.878Z,1010.57
2019-06-10T01:18:53.672Z,1010.49
2019-06-10T01:19:52.852Z,1010.49
2019-06-10T01:20:52.855Z,1010.46
2019-06-10T01:21:52.843Z,1010.42
2019-06-10T01:22:52.821Z,1010.46
2019-06-10T01:23:52.807Z,1010.39
2019-06-10T01:24:52.798Z,1010.41
2019-06-10T01:25:52.796Z,1010.42
2019-06-10T01:26:52.778Z,1010.42
2019-06-10T01:27:52.757Z,1010.43
2019-06-10T01:28:52.747Z,1010.40
2019-06-10T01:29:52.742Z,1010.38
2019-06-10T01:30:52.762Z,1010.39
2019-06-10T01:31:52.708Z,1010.39
2019-06-10T01:32:52.711Z,1010.34
2019-06-10T01:33:52.693Z,1010.38
2019-06-10T01:34:52.692Z,1010.36
2019-06-10T01:35:52.679Z,1010.35
2019-06-10T01:36:52.684Z,1010.40
2019-06-10T01:37:52.647Z,1010.37
2019-06-10T01:38:52.643Z,1010.29
2019-06-10T01:39:52.639Z,1010.35
2019-06-10T01:40:52.623Z,1010.29
2019-06-10T01:41:52.618Z,1010.24
2019-06-10T01:42:52.591Z,1010.21
2019-06-10T01:43:52.594Z,1010.24
2019-06-10T01:44:52.581Z,1010.17
2019-06-10T01:45:52.566Z,1010.17
2019-06-10T01:46:52.561Z,1010.10
2019-06-10T01:47:52.547Z,1010.09
2019-06-10T01:48:52.535Z,1010.13
2019-06-10T01:49:52.522Z,1010.13
2019-06-10T01:50:52.517Z,1010.16
2019-06-10T01:51:52.509Z,1010.10
2019-06-10T01:52:52.478Z,1010.08
2019-06-10T01:53:52.467Z,1010.12
2019-06-10T01:54:52.461Z,1010.12
2019-06-10T01:55:52.460Z,1010.15
2019-06-10T01:56:52.450Z,1010.12
2019-06-10T01:57:52.459Z,1010.14
2019-06-10T01:58:52.434Z,1010.12
2019-06-10T01:59:52.408Z,1010.09
2019-06-10T02:00:52.435Z,1010.11
2019-06-10T02:01:52.405Z,1010.10
2019-06-10T02:02:52.590Z,1010.09
2019-06-10T02:03:52.364Z,1010.04
2019-06-10T02:04:52.348Z,1010.08
2019-06-10T02:05:52.343Z,1010.07
2019-06-10T02:06:52.342Z,1010.04
2019-06-10T02:07:52.337Z,1010.05
2019-06-10T02:08:52.311Z,1010.08
2019-06-10T02:09:52.295Z,1010.01
2019-06-10T02:10:52.300Z,1010.03
2019-06-10T02:11:52.270Z,1010.01
2019-06-10T02:12:52.286Z,1009.99
2019-06-10T02:13:52.248Z,1009.93
2019-06-10T02:14:52.239Z,1009.90
2019-06-10T02:15:52.241Z,1009.87
2019-06-10T02:16:52.220Z,1009.80
2019-06-10T02:17:52.202Z,1009.73
2019-06-10T02:19:00.035Z,1009.65
2019-06-10T02:19:53.191Z,1009.61
2019-06-10T02:20:52.183Z,1009.57
2019-06-10T02:21:52.172Z,1009.48
2019-06-10T02:22:52.147Z,1009.42
2019-06-10T02:23:52.243Z,1009.37
2019-06-10T02:24:52.125Z,1009.29
2019-06-10T02:25:52.114Z,1009.32
2019-06-10T02:26:52.113Z,1009.30
2019-06-10T02:27:52.101Z,1009.27
2019-06-10T02:28:52.105Z,1009.29
2019-06-10T02:29:52.080Z,1009.30
2019-06-10T02:30:55.790Z,1009.27
2019-06-10T02:31:52.413Z,1009.27
2019-06-10T02:32:52.494Z,1009.19
2019-06-10T02:33:52.643Z,1009.12
2019-06-10T02:35:03.443Z,1009.08
2019-06-10T02:35:53.856Z,1009.03
2019-06-10T02:36:53.634Z,1009.06
2019-06-10T02:37:54.003Z,1009.09
2019-06-10T02:38:53.934Z,1009.20
2019-06-10T02:39:54.197Z,1009.23
2019-06-10T02:40:53.877Z,1009.34
2019-06-10T02:41:53.511Z,1009.41
2019-06-10T02:42:53.990Z,1009.42
2019-06-10T02:43:53.468Z,1009.48
2019-06-10T02:44:54.046Z,1009.54
2019-06-10T02:45:53.077Z,1009.51
2019-06-10T02:46:54.419Z,1009.36
2019-06-10T02:47:53.304Z,1009.29
2019-06-10T02:48:54.482Z,1009.26
2019-06-10T02:50:01.338Z,1009.35
2019-06-10T02:50:53.879Z,1009.44
2019-06-10T02:51:53.798Z,1009.43
2019-06-10T02:52:53.076Z,1009.38
2019-06-10T02:53:53.822Z,1009.28
2019-06-10T02:54:53.463Z,1009.21
2019-06-10T02:55:53.901Z,1009.06
2019-06-10T02:56:53.687Z,1009.03
2019-06-10T02:57:53.319Z,1008.96
2019-06-10T02:58:53.497Z,1008.95
2019-06-10T02:59:54.453Z,1008.90
2019-06-10T03:00:54.612Z,1008.84
2019-06-10T03:01:53.666Z,1008.74
2019-06-10T03:02:53.061Z,1008.76
2019-06-10T03:03:54.228Z,1008.81
2019-06-10T03:04:53.628Z,1008.85
2019-06-10T03:05:53.722Z,1008.85
2019-06-10T03:06:54.251Z,1008.86
2019-06-10T03:07:53.296Z,1008.84
2019-06-10T03:08:54.926Z,1008.89
2019-06-10T03:09:53.807Z,1008.83
2019-06-10T03:10:54.438Z,1008.84
2019-06-10T03:11:53.477Z,1008.86
2019-06-10T03:12:52.815Z,1008.84
2019-06-10T03:13:53.122Z,1008.84
2019-06-10T03:14:52.569Z,1008.83
2019-06-10T03:15:52.253Z,1008.81
2019-06-10T03:16:52.748Z,1008.79
2019-06-10T03:17:52.139Z,1008.82
2019-06-10T03:18:52.526Z,1008.80
2019-06-10T03:19:53.569Z,1008.78
2019-06-10T03:20:52.845Z,1008.79
2019-06-10T03:21:52.190Z,1008.79
2019-06-10T03:22:52.519Z,1008.72
2019-06-10T03:23:53.145Z,1008.74
2019-06-10T03:24:52.408Z,1008.71
2019-06-10T03:25:52.734Z,1008.73
2019-06-10T03:26:52.189Z,1008.73
2019-06-10T03:27:52.532Z,1008.75
2019-06-10T03:28:52.036Z,1008.72
2019-06-10T03:29:52.695Z,1008.77
2019-06-10T03:30:55.354Z,1008.76
2019-06-10T03:31:55.246Z,1008.80
2019-06-10T03:32:55.360Z,1008.84
2019-06-10T03:33:54.426Z,1008.83
2019-06-10T03:34:54.878Z,1008.88
2019-06-10T03:35:52.640Z,1008.85
2019-06-10T03:36:53.361Z,1008.86
2019-06-10T03:37:52.817Z,1008.91
2019-06-10T03:38:53.681Z,1008.88
2019-06-10T03:39:53.102Z,1008.94
2019-06-10T03:40:52.456Z,1008.96
2019-06-10T03:41:52.794Z,1008.95
2019-06-10T03:42:52.037Z,1008.95
2019-06-10T03:43:53.112Z,1008.95
2019-06-10T03:44:52.572Z,1009.00
2019-06-10T03:45:53.154Z,1009.04
2019-06-10T03:46:52.337Z,1009.09
2019-06-10T03:47:52.704Z,1009.14
2019-06-10T03:48:52.664Z,1009.16
2019-06-10T03:49:53.458Z,1009.18
2019-06-10T03:50:52.440Z,1009.17
2019-06-10T03:51:52.938Z,1009.13
2019-06-10T03:52:52.456Z,1009.21
2019-06-10T03:53:53.106Z,1009.18
2019-06-10T03:54:52.520Z,1009.14
2019-06-10T03:55:52.652Z,1009.18
2019-06-10T03:56:52.116Z,1009.12
2019-06-10T03:57:52.610Z,1009.08
2019-06-10T03:58:52.119Z,1009.13
2019-06-10T03:59:52.778Z,1009.12
2019-06-10T04:00:52.234Z,1009.07
2019-06-10T04:01:52.891Z,1008.96
2019-06-10T04:02:53.106Z,1008.94
2019-06-10T04:03:52.986Z,1008.89
2019-06-10T04:04:52.336Z,1008.91
2019-06-10T04:05:52.694Z,1008.86
2019-06-10T04:06:53.215Z,1008.82
2019-06-10T04:07:52.696Z,1008.82
2019-06-10T04:08:52.230Z,1008.78
2019-06-10T04:09:52.590Z,1008.81
2019-06-10T04:10:52.072Z,1008.84
2019-06-10T04:11:52.863Z,1008.83
2019-06-10T04:12:52.354Z,1008.87
2019-06-10T04:13:53.358Z,1008.83
2019-06-10T04:14:52.180Z,1008.81
2019-06-10T04:15:53.310Z,1008.83
2019-06-10T04:16:52.528Z,1008.84
2019-06-10T04:17:53.013Z,1008.87
2019-06-10T04:18:53.270Z,1008.83
2019-06-10T04:20:07.563Z,1008.85
2019-06-10T04:20:52.873Z,1008.83
2019-06-10T04:21:53.045Z,1008.79
2019-06-10T04:22:52.295Z,1008.78
2019-06-10T04:23:52.797Z,1008.75
2019-06-10T04:24:52.081Z,1008.73
2019-06-10T04:25:52.687Z,1008.70
2019-06-10T04:26:52.131Z,1008.70
2019-06-10T04:27:52.430Z,1008.66
2019-06-10T04:28:52.853Z,1008.66
2019-06-10T04:29:52.385Z,1008.64
2019-06-10T04:30:53.091Z,1008.63
2019-06-10T04:31:52.408Z,1008.60
2019-06-10T04:32:52.779Z,1008.60
2019-06-10T04:33:52.356Z,1008.61
2019-06-10T04:34:52.868Z,1008.70
2019-06-10T04:35:52.018Z,1008.74
2019-06-10T04:36:52.614Z,1008.69
2019-06-10T04:37:52.042Z,1008.70
2019-06-10T04:38:52.506Z,1008.63
2019-06-10T04:39:52.918Z,1008.59
2019-06-10T04:40:52.563Z,1008.58
2019-06-10T04:41:52.985Z,1008.44
2019-06-10T04:42:52.523Z,1008.40
2019-06-10T04:43:53.007Z,1008.48
2019-06-10T04:44:52.530Z,1008.35
2019-06-10T04:45:52.607Z,1008.31
2019-06-10T04:46:52.067Z,1008.30
2019-06-10T04:47:52.439Z,1008.24
2019-06-10T04:48:53.027Z,1008.26
2019-06-10T04:49:52.242Z,1008.14
2019-06-10T04:50:53.165Z,1008.11
2019-06-10T04:51:52.377Z,1007.99
2019-06-10T04:52:52.763Z,1008.04
2019-06-10T04:53:52.481Z,1008.07
2019-06-10T04:54:52.602Z,1008.11
2019-06-10T04:55:52.271Z,1008.17
2019-06-10T04:56:52.752Z,1008.10
2019-06-10T04:57:52.120Z,1008.10
2019-06-10T04:58:52.572Z,1008.12
2019-06-10T04:59:50.417Z,1008.16
2019-06-10T05:00:52.333Z,1008.22
2019-06-10T05:01:52.884Z,1008.20
2019-06-10T05:02:52.247Z,1008.20
2019-06-10T05:03:52.455Z,1008.25
2019-06-10T05:04:50.353Z,1008.30
2019-06-10T05:05:52.622Z,1008.34
2019-06-10T05:06:52.538Z,1008.34
2019-06-10T05:07:52.066Z,1008.32
2019-06-10T05:08:50.296Z,1008.32
2019-06-10T05:09:52.437Z,1008.35
2019-06-10T05:10:50.286Z,1008.35
2019-06-10T05:11:52.253Z,1008.35
2019-06-10T05:12:52.446Z,1008.38
2019-06-10T05:13:50.257Z,1008.39
2019-06-10T05:14:52.521Z,1008.41
2019-06-10T05:15:52.571Z,1008.42
2019-06-10T05:16:50.227Z,1008.42
2019-06-10T05:17:52.545Z,1008.40
2019-06-10T05:18:54.058Z,1008.44
2019-06-10T05:19:50.217Z,1008.42
2019-06-10T05:20:57.719Z,1008.46
2019-06-10T05:21:52.413Z,1008.45
2019-06-10T05:22:50.164Z,1008.45
2019-06-10T05:23:52.158Z,1008.41
2019-06-10T05:24:50.145Z,1008.36
2019-06-10T05:25:52.636Z,1008.35
2019-06-10T05:26:52.547Z,1008.41
2019-06-10T05:27:52.138Z,1008.45
2019-06-10T05:28:52.268Z,1008.42
2019-06-10T05:29:50.075Z,1008.38
2019-06-10T05:30:50.069Z,1008.43
2019-06-10T05:31:52.175Z,1008.41
2019-06-10T05:32:52.268Z,1008.39
2019-06-10T05:33:50.036Z,1008.41
2019-06-10T05:34:52.655Z,1008.30
2019-06-10T05:35:50.011Z,1008.35
2019-06-10T05:36:52.423Z,1008.35
2019-06-10T05:37:49.991Z,1008.39
2019-06-10T05:38:52.379Z,1008.32
2019-06-10T05:39:49.959Z,1008.35
2019-06-10T05:40:51.994Z,1008.42
2019-06-10T05:41:50.839Z,1008.48
2019-06-10T05:42:49.983Z,1008.50
2019-06-10T05:43:52.099Z,1008.45
2019-06-10T05:44:52.278Z,1008.42
2019-06-10T05:45:49.901Z,1008.34
2019-06-10T05:46:49.885Z,1008.24
2019-06-10T05:47:49.874Z,1008.20
2019-06-10T05:48:52.403Z,1008.14
2019-06-10T05:49:49.855Z,1008.13
2019-06-10T05:51:00.117Z,1008.14
2019-06-10T05:51:52.672Z,1008.18
2019-06-10T05:52:51.919Z,1008.20
2019-06-10T05:53:49.813Z,1008.14
2019-06-10T05:54:51.993Z,1008.16
2019-06-10T05:55:49.808Z,1008.16
2019-06-10T05:56:52.053Z,1008.21
2019-06-10T05:57:49.764Z,1008.26
2019-06-10T05:58:52.268Z,1008.31
2019-06-10T05:59:52.144Z,1008.34
2019-06-10T06:00:49.742Z,1008.37
2019-06-10T06:01:49.719Z,1008.33
2019-06-10T06:02:52.118Z,1008.31
2019-06-10T06:03:49.699Z,1008.30
2019-06-10T06:04:49.685Z,1008.27
2019-06-10T06:05:49.670Z,1008.27
2019-06-10T06:06:49.666Z,1008.27
2019-06-10T06:08:04.149Z,1008.19
2019-06-10T06:08:53.162Z,1008.25
2019-06-10T06:09:49.631Z,1008.21
2019-06-10T06:10:49.617Z,1008.17
2019-06-10T06:11:49.599Z,1008.17
2019-06-10T06:12:49.603Z,1008.22
2019-06-10T06:13:52.043Z,1008.18
2019-06-10T06:14:49.590Z,1008.22
2019-06-10T06:15:49.568Z,1008.14
2019-06-10T06:16:49.552Z,1008.15
2019-06-10T06:18:04.047Z,1008.13
2019-06-10T06:18:52.485Z,1008.14
2019-06-10T06:19:49.554Z,1008.15
2019-06-10T06:20:49.518Z,1008.09
2019-06-10T06:21:49.540Z,1008.10
2019-06-10T06:22:49.489Z,1008.13
2019-06-10T06:23:49.493Z,1008.10
2019-06-10T06:24:49.493Z,1008.12
2019-06-10T06:25:49.458Z,1008.16
2019-06-10T06:26:49.437Z,1008.12
2019-06-10T06:27:49.437Z,1008.13
2019-06-10T06:28:49.422Z,1008.14
2019-06-10T06:29:49.411Z,1008.22
2019-06-10T06:30:49.428Z,1008.16
2019-06-10T06:31:49.386Z,1008.12
2019-06-10T06:32:49.380Z,1008.09
2019-06-10T06:33:49.356Z,1008.14
2019-06-10T06:34:49.360Z,1008.17
2019-06-10T06:35:49.355Z,1008.18
2019-06-10T06:36:49.327Z,1008.20
2019-06-10T06:37:49.318Z,1008.18
2019-06-10T06:38:49.307Z,1008.24
2019-06-10T06:39:49.307Z,1008.27
2019-06-10T06:40:49.322Z,1008.30
2019-06-10T06:41:49.284Z,1008.23
2019-06-10T06:42:49.340Z,1008.23
2019-06-10T06:43:49.248Z,1008.25
2019-06-10T06:44:49.306Z,1008.15
2019-06-10T06:45:49.248Z,1008.13
2019-06-10T06:46:49.305Z,1008.14
2019-06-10T06:47:49.259Z,1008.13
2019-06-10T06:48:52.982Z,1008.11
2019-06-10T06:49:49.184Z,1008.06
2019-06-10T06:51:02.050Z,1008.10
2019-06-10T06:51:56.085Z,1008.00
2019-06-10T06:53:19.039Z,1007.99
2019-06-10T06:53:53.029Z,1007.91
2019-06-10T06:54:50.131Z,1007.84
2019-06-10T06:55:49.121Z,1007.72
2019-06-10T06:56:49.138Z,1007.65
2019-06-10T06:57:49.105Z,1007.49
2019-06-10T06:58:49.094Z,1007.44
2019-06-10T06:59:49.084Z,1007.46
2019-06-10T07:01:03.781Z,1007.46
2019-06-10T07:01:52.329Z,1007.46
2019-06-10T07:02:49.059Z,1007.49
2019-06-10T07:03:49.031Z,1007.56
2019-06-10T07:04:49.032Z,1007.60
2019-06-10T07:05:49.052Z,1007.71
2019-06-10T07:06:49.012Z,1007.68
2019-06-10T07:07:48.997Z,1007.74
2019-06-10T07:09:03.746Z,1007.75
2019-06-10T07:09:49.974Z,1007.81
2019-06-10T07:10:48.954Z,1007.77
2019-06-10T07:11:48.963Z,1007.78
2019-06-10T07:12:48.951Z,1007.78
2019-06-10T07:13:48.938Z,1007.70
2019-06-10T07:14:48.938Z,1007.76
2019-06-10T07:15:48.908Z,1007.74
2019-06-10T07:16:48.903Z,1007.75
2019-06-10T07:17:48.902Z,1007.69
2019-06-10T07:18:50.282Z,1007.68
2019-06-10T07:19:48.861Z,1007.68
2019-06-10T07:20:48.886Z,1007.69
2019-06-10T07:22:06.644Z,1007.70
2019-06-10T07:22:49.863Z,1007.69
2019-06-10T07:23:48.840Z,1007.71
2019-06-10T07:24:48.810Z,1007.83
2019-06-10T07:25:48.799Z,1007.77
2019-06-10T07:26:52.184Z,1007.74
2019-06-10T07:27:49.792Z,1007.67
2019-06-10T07:28:48.778Z,1007.62
2019-06-10T07:29:48.744Z,1007.60
2019-06-10T07:30:52.748Z,1007.63
2019-06-10T07:31:51.047Z,1007.62
2019-06-10T07:32:48.736Z,1007.59
2019-06-10T07:33:48.717Z,1007.65
2019-06-10T07:34:48.713Z,1007.57
2019-06-10T07:35:48.691Z,1007.62
2019-06-10T07:36:48.686Z,1007.60
2019-06-10T07:37:48.686Z,1007.67
2019-06-10T07:38:49.272Z,1007.66
2019-06-10T07:39:48.644Z,1007.66
2019-06-10T07:40:48.640Z,1007.66
2019-06-10T07:41:48.692Z,1007.68
2019-06-10T07:42:48.629Z,1007.66
2019-06-10T07:43:49.748Z,1007.68
2019-06-10T07:44:48.596Z,1007.66
2019-06-10T07:45:48.583Z,1007.71
2019-06-10T07:46:48.565Z,1007.69
2019-06-10T07:47:48.549Z,1007.72
2019-06-10T07:48:52.504Z,1007.74
2019-06-10T07:49:49.534Z,1007.70
2019-06-10T07:50:48.522Z,1007.69
2019-06-10T07:51:48.516Z,1007.78
2019-06-10T07:52:48.501Z,1007.81
2019-06-10T07:53:48.497Z,1007.73
2019-06-10T07:54:48.477Z,1007.74
2019-06-10T07:55:48.476Z,1007.74
2019-06-10T07:56:50.668Z,1007.73
2019-06-10T07:57:49.446Z,1007.69
2019-06-10T07:58:48.472Z,1007.68
2019-06-10T07:59:48.412Z,1007.69
2019-06-10T08:00:48.682Z,1007.67
2019-06-10T08:01:51.780Z,1007.73
2019-06-10T08:02:49.383Z,1007.70
2019-06-10T08:03:48.390Z,1007.72
2019-06-10T08:04:48.396Z,1007.72
2019-06-10T08:05:48.368Z,1007.74
2019-06-10T08:06:50.067Z,1007.81
2019-06-10T08:07:49.017Z,1007.77
2019-06-10T08:08:48.316Z,1007.79
2019-06-10T08:09:48.340Z,1007.77
2019-06-10T08:10:48.331Z,1007.80
2019-06-10T08:11:48.805Z,1007.76
2019-06-10T08:12:48.402Z,1007.77
2019-06-10T08:13:48.263Z,1007.68
2019-06-10T08:14:48.282Z,1007.71
2019-06-10T08:15:48.451Z,1007.74
2019-06-10T08:16:48.670Z,1007.71
2019-06-10T08:17:48.339Z,1007.72
2019-06-10T08:19:16.159Z,1007.72
2019-06-10T08:19:51.132Z,1007.64
2019-06-10T08:20:48.229Z,1007.66
2019-06-10T08:21:49.538Z,1007.62
2019-06-10T08:22:54.041Z,1007.62
2019-06-10T08:23:49.168Z,1007.65
2019-06-10T08:24:48.449Z,1007.63
2019-06-10T08:25:53.674Z,1007.59
2019-06-10T08:26:49.141Z,1007.64
2019-06-10T08:27:49.353Z,1007.63
2019-06-10T08:28:48.405Z,1007.67
2019-06-10T08:29:49.798Z,1007.63
2019-06-10T08:30:49.098Z,1007.61
2019-06-10T08:31:49.915Z,1007.58
2019-06-10T08:32:53.177Z,1007.60
2019-06-10T08:33:49.207Z,1007.58
2019-06-10T08:34:48.211Z,1007.60
2019-06-10T08:35:56.379Z,1007.61
2019-06-10T08:36:50.814Z,1007.61
2019-06-10T08:37:48.990Z,1007.62
2019-06-10T08:38:48.788Z,1007.65
2019-06-10T08:39:48.000Z,1007.63
2019-06-10T08:40:48.514Z,1007.63
2019-06-10T08:41:49.276Z,1007.58
2019-06-10T08:42:48.915Z,1007.65
2019-06-10T08:43:48.525Z,1007.65
2019-06-10T08:44:48.623Z,1007.59
2019-06-10T08:45:48.822Z,1007.55
2019-06-10T08:46:48.671Z,1007.56
2019-06-10T08:47:49.166Z,1007.56
2019-06-10T08:48:49.495Z,1007.47
2019-06-10T08:49:49.128Z,1007.49
2019-06-10T08:50:49.944Z,1007.52
2019-06-10T08:51:50.047Z,1007.47
2019-06-10T08:53:03.690Z,1007.44
2019-06-10T08:53:50.079Z,1007.46
2019-06-10T08:54:50.952Z,1007.40
2019-06-10T08:55:50.299Z,1007.44
2019-06-10T08:56:50.716Z,1007.37
2019-06-10T08:57:50.971Z,1007.31
2019-06-10T08:58:49.650Z,1007.34
2019-06-10T08:59:49.263Z,1007.28
2019-06-10T09:00:49.484Z,1007.35
2019-06-10T09:01:51.551Z,1007.42
2019-06-10T09:02:50.815Z,1007.42
2019-06-10T09:03:49.447Z,1007.50
2019-06-10T09:04:50.389Z,1007.49
2019-06-10T09:05:50.711Z,1007.48
2019-06-10T09:06:50.592Z,1007.46
2019-06-10T09:07:50.878Z,1007.51
2019-06-10T09:08:51.273Z,1007.54
2019-06-10T09:09:50.361Z,1007.54
2019-06-10T09:10:49.858Z,1007.52
2019-06-10T09:11:51.303Z,1007.53
2019-06-10T09:12:50.980Z,1007.55
2019-06-10T09:13:50.354Z,1007.52
2019-06-10T09:14:48.769Z,1007.52
2019-06-10T09:16:03.685Z,1007.49
2019-06-10T09:16:49.353Z,1007.56
2019-06-10T09:17:49.632Z,1007.52
2019-06-10T09:18:50.861Z,1007.52
2019-06-10T09:19:50.066Z,1007.51
2019-06-10T09:20:52.425Z,1007.51
2019-06-10T09:21:52.412Z,1007.49
2019-06-10T09:23:06.497Z,1007.46
2019-06-10T09:23:55.869Z,1007.46
2019-06-10T09:24:52.367Z,1007.48
2019-06-10T09:25:52.824Z,1007.44
2019-06-10T09:26:51.247Z,1007.41
2019-06-10T09:27:49.403Z,1007.45
2019-06-10T09:28:52.419Z,1007.45
2019-06-10T09:29:52.104Z,1007.36
2019-06-10T09:30:54.109Z,1007.40
2019-06-10T09:31:51.305Z,1007.39
2019-06-10T09:32:51.203Z,1007.42
2019-06-10T09:33:50.762Z,1007.40
2019-06-10T09:34:52.296Z,1007.41
2019-06-10T09:35:50.933Z,1007.35
2019-06-10T09:36:50.089Z,1007.33
2019-06-10T09:37:51.120Z,1007.35
2019-06-10T09:38:49.068Z,1007.31
2019-06-10T09:39:52.493Z,1007.26
2019-06-10T09:40:53.233Z,1007.25
2019-06-10T09:41:59.716Z,1007.22
2019-06-10T09:42:52.028Z,1007.19
2019-06-10T09:43:50.823Z,1007.17
2019-06-10T09:44:50.312Z,1007.16
2019-06-10T09:45:49.139Z,1007.22
2019-06-10T09:46:48.984Z,1007.12
2019-06-10T09:47:53.002Z,1007.09
2019-06-10T09:48:50.307Z,1007.08
2019-06-10T09:49:50.207Z,1007.12
2019-06-10T09:50:52.394Z,1007.10
2019-06-10T09:51:50.646Z,1007.09
2019-06-10T09:52:52.417Z,1007.11
2019-06-10T09:53:56.176Z,1007.06
2019-06-10T09:54:55.695Z,1007.16
2019-06-10T09:55:51.000Z,1007.19
2019-06-10T09:56:48.822Z,1007.26
2019-06-10T09:57:49.761Z,1007.27
2019-06-10T09:58:49.667Z,1007.23
2019-06-10T09:59:51.368Z,1007.25
2019-06-10T10:00:50.836Z,1007.25
2019-06-10T10:01:50.972Z,1007.27
2019-06-10T10:02:51.485Z,1007.26
2019-06-10T10:03:53.484Z,1007.22
2019-06-10T10:04:52.554Z,1007.28
2019-06-10T10:05:59.444Z,1007.25
2019-06-10T10:06:50.514Z,1007.24
2019-06-10T10:07:50.771Z,1007.26
2019-06-10T10:08:51.467Z,1007.25
2019-06-10T10:09:51.396Z,1007.28
2019-06-10T10:10:51.085Z,1007.31
2019-06-10T10:11:49.266Z,1007.30
2019-06-10T10:12:49.022Z,1007.28
2019-06-10T10:13:49.431Z,1007.30
2019-06-10T10:14:54.239Z,1007.32
2019-06-10T10:15:48.236Z,1007.28
2019-06-10T10:16:52.256Z,1007.27
2019-06-10T10:17:49.493Z,1007.30
2019-06-10T10:18:49.473Z,1007.31
2019-06-10T10:19:49.659Z,1007.35
2019-06-10T10:20:49.586Z,1007.34
2019-06-10T10:21:51.230Z,1007.35
2019-06-10T10:22:49.247Z,1007.31
2019-06-10T10:23:54.017Z,1007.27
2019-06-10T10:24:49.252Z,1007.29
2019-06-10T10:25:48.251Z,1007.32
2019-06-10T10:26:49.077Z,1007.28
2019-06-10T10:27:50.871Z,1007.25
2019-06-10T10:28:48.775Z,1007.21
2019-06-10T10:29:48.877Z,1007.16
2019-06-10T10:30:49.197Z,1007.16
2019-06-10T10:31:49.474Z,1007.15
2019-06-10T10:32:50.484Z,1007.13
2019-06-10T10:33:46.838Z,1007.16
2019-06-10T10:34:48.343Z,1007.24
2019-06-10T10:35:48.021Z,1007.20
2019-06-10T10:36:48.362Z,1007.26
2019-06-10T10:37:46.696Z,1007.22
2019-06-10T10:38:46.808Z,1007.24
2019-06-10T10:39:46.731Z,1007.29
2019-06-10T10:40:48.801Z,1007.23
2019-06-10T10:41:47.142Z,1007.27
2019-06-10T10:42:52.223Z,1007.22
2019-06-10T10:43:51.212Z,1007.24
2019-06-10T10:44:50.008Z,1007.28
2019-06-10T10:45:50.347Z,1007.29
2019-06-10T10:46:47.609Z,1007.29
2019-06-10T10:47:46.961Z,1007.25
2019-06-10T10:48:47.091Z,1007.21
2019-06-10T10:49:47.046Z,1007.25
2019-06-10T10:50:47.481Z,1007.27
2019-06-10T10:51:46.988Z,1007.22
2019-06-10T10:52:48.201Z,1007.21
2019-06-10T10:53:50.533Z,1007.17
2019-06-10T10:54:47.937Z,1007.17
2019-06-10T10:55:47.188Z,1007.17
2019-06-10T10:56:49.189Z,1007.13
2019-06-10T10:57:47.288Z,1007.14
2019-06-10T10:58:47.677Z,1007.14
2019-06-10T10:59:47.760Z,1007.15
2019-06-10T11:00:49.310Z,1007.11
2019-06-10T11:01:47.530Z,1007.11
2019-06-10T11:02:48.735Z,1007.08
2019-06-10T11:03:48.157Z,1007.07
2019-06-10T11:04:47.899Z,1007.09
2019-06-10T11:05:49.484Z,1007.11
2019-06-10T11:06:47.760Z,1007.14
2019-06-10T11:07:47.537Z,1007.13
2019-06-10T11:08:48.034Z,1007.11
2019-06-10T11:09:46.983Z,1007.13
2019-06-10T11:10:48.200Z,1007.17
2019-06-10T11:11:47.222Z,1007.17
2019-06-10T11:12:46.995Z,1007.17
2019-06-10T11:13:47.386Z,1007.21
2019-06-10T11:14:46.986Z,1007.19
2019-06-10T11:15:47.336Z,1007.22
2019-06-10T11:16:47.169Z,1007.21
2019-06-10T11:17:47.258Z,1007.21
2019-06-10T11:18:47.178Z,1007.21
2019-06-10T11:19:47.285Z,1007.20
2019-06-10T11:20:47.351Z,1007.16
2019-06-10T11:21:47.387Z,1007.14
2019-06-10T11:22:47.499Z,1007.14
2019-06-10T11:23:46.293Z,1007.11
2019-06-10T11:24:47.791Z,1007.08
2019-06-10T11:25:46.154Z,1007.01
2019-06-10T11:26:46.154Z,1007.06
2019-06-10T11:27:46.423Z,1007.08
2019-06-10T11:28:47.363Z,1007.02
2019-06-10T11:29:46.172Z,1007.00
2019-06-10T11:30:47.277Z,1006.98
2019-06-10T11:31:46.303Z,1006.97
2019-06-10T11:32:46.215Z,1006.98
2019-06-10T11:33:46.890Z,1007.01
2019-06-10T11:34:46.346Z,1007.00
2019-06-10T11:35:46.724Z,1006.96
2019-06-10T11:36:46.240Z,1006.98
2019-06-10T11:37:46.828Z,1006.97
2019-06-10T11:38:46.292Z,1006.97
2019-06-10T11:39:46.017Z,1006.94
2019-06-10T11:40:47.149Z,1006.93
2019-06-10T11:41:46.005Z,1006.90
2019-06-10T11:42:46.314Z,1006.92
2019-06-10T11:43:46.340Z,1006.89
2019-06-10T11:44:46.376Z,1006.89
2019-06-10T11:45:51.155Z,1006.94
2019-06-10T11:46:46.926Z,1006.97
2019-06-10T11:47:46.680Z,1006.96
2019-06-10T11:48:46.990Z,1006.96
2019-06-10T11:49:46.878Z,1006.97
2019-06-10T11:50:47.038Z,1006.89
2019-06-10T11:51:47.102Z,1006.88
2019-06-10T11:52:45.870Z,1006.90
2019-06-10T11:53:45.862Z,1006.91
2019-06-10T11:54:55.733Z,1006.91
2019-06-10T11:55:47.651Z,1006.91
2019-06-10T11:56:45.847Z,1006.88
2019-06-10T11:57:45.814Z,1006.84
2019-06-10T11:58:45.818Z,1006.88
2019-06-10T11:59:45.853Z,1006.86
2019-06-10T12:00:45.784Z,1006.84
2019-06-10T12:01:45.784Z,1006.81
2019-06-10T12:02:45.762Z,1006.77
2019-06-10T12:03:45.748Z,1006.73
2019-06-10T12:04:45.771Z,1006.73
2019-06-10T12:05:45.802Z,1006.70